Flight Track Log - Related Links

Times and Time Zones

All times are in EDT time to prevent confusion due to time zone crossing. See the N612CT flight status page for this flight to view local times or setup timezone preferences in your user account.

Time Position Orientation Groundspeed Altitude Reporting Facility
EDT Latitude Longitude Course Direction KTS MPH feet Rate Location/Type
Wed 08:51:09 AM 27.8833 -81.7333 183° South 144 166 2,400  Level Tampa TRACON
Wed 08:52:40 AM 27.8339 -81.7358 183° South 79 91 3,500 755 Climbing Miami Center
Wed 08:53:40 AM 27.7944 -81.7319 175° South 109 125 4,300 750 Climbing Miami Center
Wed 08:54:40 AM 27.7547 -81.7325 181° South 150 173 5,000 350 Climbing Miami Center
Wed 08:55:40 AM 27.7153 -81.7261 172° South 156 180 5,000  Level Miami Center
Wed 08:56:40 AM 27.6633 -81.7192 173° South 163 188 5,000  Level Miami Center
Wed 08:57:40 AM 27.6175 -81.7150 175° South 168 193 5,000  Level Miami Center
Wed 08:58:40 AM 27.5761 -81.7086 172° South 168 193 5,000  Level Miami Center
Wed 08:59:40 AM 27.5261 -81.7042 175° South 174 200 5,000  Level Miami Center
Wed 09:00:40 AM 27.4806 -81.6975 173° South 169 194 5,000  Level Miami Center
Wed 09:01:40 AM 27.4347 -81.6931 175° South 169 194 5,000  Level Miami Center
Wed 09:02:40 AM 27.3911 -81.6867 173° South 169 194 5,000  Level Miami Center
Wed 09:03:40 AM 27.3433 -81.6800 173° South 169 194 5,000  Level Miami Center
Wed 09:04:40 AM 27.2975 -81.6733 173° South 169 194 5,000  Level Miami Center
Wed 09:05:40 AM 27.2517 -81.6692 175° South 164 189 5,000  Level Miami Center
Wed 09:06:40 AM 27.2061 -81.6625 173° South 164 189 5,000  Level Miami Center
Wed 09:07:40 AM 27.1603 -81.6561 173° South 164 189 5,000  Level Miami Center
Wed 09:08:40 AM 27.1147 -81.6494 173° South 164 189 5,000  Level Miami Center
Wed 09:09:40 AM 27.0711 -81.6431 173° South 164 189 5,000  Level Miami Center
Wed 09:10:40 AM 27.0272 -81.6411 178° South 158 182 5,000  Level Miami Center
Wed 09:11:40 AM 26.9792 -81.6461 185° South 164 189 5,000  Level Miami Center
Wed 09:12:40 AM 26.9353 -81.6492 184° South 169 194 5,000  Level Miami Center
Wed 09:14:00 AM 26.8777 -81.6508 188° South  Level FlightAware Approximate
Wed 09:21:00 AM 26.5790 -81.6952 188° South  Level FlightAware Approximate
Wed 09:22:00 AM 26.5363 -81.7015 188° South  Level FlightAware Approximate
Wed 09:23:00 AM 26.4936 -81.7078 188° South  Level FlightAware Approximate
Wed 09:24:00 AM 26.4509 -81.7141 188° South  Level FlightAware Approximate
Wed 09:25:00 AM 26.4083 -81.7208 189° South  Level FlightAware Approximate
Wed 09:26:00 AM 26.3658 -81.7279 189° South  Level FlightAware Approximate
Wed 09:27:00 AM 26.3232 -81.7350 188° South  Level FlightAware Approximate
Wed 09:28:00 AM 26.2806 -81.7421 188° South  Level FlightAware Approximate
Wed 09:29:00 AM 26.2380 -81.7492 188° South  Level FlightAware Approximate
Wed 09:30:00 AM 26.1956 -81.7575 190° South  Level FlightAware Approximate
Wed 09:31:00 AM 26.1533 -81.7660 190° South  Level FlightAware Approximate
Wed 09:32:00 AM 26.1500 -81.7667 190° South  Level FlightAware Approximate
Wed 09:33:00 AM 26.1524 -81.7756 190° South  Level Estimated
Wed 09:34:00 AM 26.1524 -81.7756 190° South  Level Estimated
Wed 09:35:00 AM 26.1524 -81.7756 190° South  Level Estimated
Wed 09:36:00 AM 26.1524 -81.7756 190° South  Level Estimated
Wed 09:37:00 AM 26.1524 -81.7756 190° South  Level Estimated
Wed 09:38:00 AM 26.1524 -81.7756 190° South  Level Estimated
Wed 09:39:00 AM 26.1524 -81.7756 190° South  Level Estimated
Wed 09:40:00 AM 26.1524 -81.7756 190° South  Level Estimated

Login

Don't have an account? Register now (free) for customized features, flight alerts, and more!